createdAt,value
2022-12-03T00:07:55.876Z,15.98
2022-12-03T00:22:57.809Z,16.48
2022-12-03T00:37:59.809Z,16.85
2022-12-03T00:53:01.750Z,17.30
2022-12-03T01:08:03.808Z,14.98
2022-12-03T01:23:05.947Z,17.52
2022-12-03T01:38:07.912Z,17.30
2022-12-03T01:53:14.910Z,18.30
2022-12-03T02:08:27.491Z,20.20
2022-12-03T02:23:35.731Z,17.13
2022-12-03T02:38:37.932Z,17.33
2022-12-03T02:53:44.706Z,18.77
2022-12-03T03:08:46.709Z,15.40
2022-12-03T03:24:04.556Z,16.25
2022-12-03T03:39:06.675Z,16.50
2022-12-03T03:54:08.884Z,17.65
2022-12-03T04:09:10.735Z,14.93
2022-12-03T04:24:12.658Z,15.82
2022-12-03T04:39:14.563Z,16.33
2022-12-03T04:54:16.594Z,16.83
2022-12-03T05:09:18.651Z,14.98
2022-12-03T05:24:20.526Z,15.75
2022-12-03T05:39:22.406Z,15.85
2022-12-03T05:54:24.345Z,15.48
2022-12-03T06:09:26.264Z,15.85
2022-12-03T06:24:28.375Z,15.95
2022-12-03T06:39:30.345Z,15.52
2022-12-03T06:54:32.286Z,15.52
2022-12-03T07:09:34.206Z,15.57
2022-12-03T07:24:36.123Z,15.10
2022-12-03T07:39:38.107Z,15.35
2022-12-03T07:54:40.027Z,16.95
2022-12-03T08:09:43.002Z,17.00
2022-12-03T08:24:45.026Z,18.77
2022-12-03T08:39:54.484Z,18.63
2022-12-03T08:54:57.068Z,19.90
2022-12-03T09:09:59.232Z,19.33
2022-12-03T09:25:01.087Z,20.58
2022-12-03T09:40:03.917Z,17.60
2022-12-03T09:55:12.146Z,18.92
2022-12-03T10:10:20.552Z,18.30
2022-12-03T10:25:23.665Z,19.15
2022-12-03T10:40:33.906Z,18.42
2022-12-03T10:55:39.966Z,17.65
2022-12-03T11:10:42.694Z,18.42
2022-12-03T11:25:51.328Z,19.17
2022-12-03T11:41:11.361Z,18.75
2022-12-03T11:56:25.080Z,19.33
2022-12-03T12:11:31.803Z,20.40
2022-12-03T12:26:33.959Z,20.25
2022-12-03T12:41:35.881Z,20.33
2022-12-03T12:56:39.105Z,20.38
2022-12-03T13:11:46.009Z,20.98
2022-12-03T13:26:47.956Z,20.50
2022-12-03T13:42:08.412Z,21.73
2022-12-03T13:57:10.465Z,21.63
2022-12-03T14:12:27.443Z,23.63
2022-12-03T14:27:29.404Z,21.50
2022-12-03T14:42:31.365Z,23.98
2022-12-03T14:57:33.327Z,22.88
2022-12-03T15:12:35.446Z,22.17
2022-12-03T15:27:37.404Z,25.40
2022-12-03T15:42:39.485Z,24.83
2022-12-03T15:57:41.464Z,25.15
2022-12-03T16:12:43.445Z,25.88
2022-12-03T16:27:45.485Z,27.45
2022-12-03T16:42:47.483Z,29.73
2022-12-03T16:57:49.605Z,30.75
2022-12-03T17:28:13.864Z,30.77
2022-12-03T17:43:15.825Z,31.15
2022-12-03T17:58:17.706Z,32.13
2022-12-03T18:13:19.725Z,31.85
2022-12-03T18:28:21.926Z,33.28
2022-12-03T18:43:25.423Z,30.48
2022-12-03T18:58:27.365Z,31.98
2022-12-03T19:13:29.462Z,33.15
2022-12-03T19:28:31.723Z,31.60
2022-12-03T19:43:36.665Z,33.20
2022-12-03T19:58:39.883Z,41.00
2022-12-03T20:13:43.065Z,32.70
2022-12-03T20:28:45.770Z,38.58
2022-12-03T20:43:48.286Z,34.00
2022-12-03T20:58:50.683Z,33.33
2022-12-03T21:13:54.475Z,32.75
2022-12-03T21:28:56.479Z,33.67
2022-12-03T21:43:58.978Z,33.45
2022-12-03T21:59:00.980Z,30.80
2022-12-03T22:14:04.991Z,31.77
2022-12-03T22:29:06.959Z,31.13
2022-12-03T22:44:08.959Z,29.67
2022-12-03T22:59:10.938Z,31.38
2022-12-03T23:14:13.720Z,32.65
2022-12-03T23:29:15.700Z,35.78
2022-12-03T23:44:17.740Z,34.28
2022-12-03T23:59:19.662Z,31.08
